EW7840 Weather Reports


Display with metric or nautical units.
time (UTC)temp
F
wind
direction
speed
MPH
gust
MPH
rain 1hr
in
rain 24hr
in
rain mn
in
humidity
%
barometer
mb
20191020185123 56 167 0.0 1.0 0.12 1.07 1.07 97 1011.4
20191020184623 56 59 0.0 1.0 0.12 1.06 1.06 97 1011.4
20191020184123 56 159 0.0 4.0 0.11 1.05 1.05 97 1011.4
20191020183622 56 25 0.0 8.0 0.11 1.04 1.04 97 1011.3
20191020183125 55 140 0.0 8.0 0.11 1.04 1.04 98 1011.4
20191020182623 55 153 0.0 7.0 0.11 1.03 1.03 97 1011.4
20191020182123 55 331 0.0 7.0 0.11 1.02 1.02 97 1011.5
20191020181623 55 123 0.0 7.0 0.09 1.00 1.01 97 1011.7
20191020181123 55 26 0.0 7.0 0.10 0.99 0.99 97 1011.8
20191020180620 55 119 0.0 4.0 0.11 0.98 0.98 97 1011.8
20191020180121 55 347 0.0 4.0 0.12 0.97 0.97 97 1011.8
20191020175621 55 115 0.0 4.0 0.12 0.96 0.96 97 1011.8
20191020175122 55 130 0.0 4.0 0.12 0.95 0.95 97 1011.9
20191020174621 55 121 0.0 4.0 0.11 0.94 0.94 98 1011.9
20191020174121 55 156 0.0 2.0 0.13 0.94 0.94 97 1011.9
20191020173622 55 111 0.0 2.0 0.13 0.93 0.93 97 1011.9
20191020173121 55 126 0.0 1.0 0.14 0.93 0.93 97 1011.9
20191020172622 55 134 0.0 0.0 0.14 0.92 0.92 97 1012.0
20191020172121 55 345 0.0 0.0 0.14 0.91 0.91 97 1012.2
20191020171619 55 135 0.0 0.0 0.15 0.91 0.91 97 1012.4
20191020171120 55 142 0.0 0.0 0.14 0.89 0.89 97 1012.4
20191020170619 55 123 0.0 1.0 0.12 0.87 0.87 97 1012.5
20191020170120 55 67 0.0 1.0 0.11 0.85 0.85 97 1012.6
20191020165620 55 355 0.0 4.0 0.10 0.84 0.84 97 1012.7
20191020165119 55 144 0.0 4.0 0.10 0.83 0.83 97 1012.6
20191020164618 55 17 0.0 2.0 0.10 0.83 0.83 97 1012.7
20191020164118 55 113 0.0 6.0 0.09 0.81 0.81 97 1012.8
20191020163618 55 53 0.0 6.0 0.09 0.80 0.80 97 1012.9
20191020163118 55 126 0.0 6.0 0.09 0.79 0.79 97 1013.0
20191020162615 55 129 0.0 6.0 0.09 0.78 0.79 97 1012.9
20191020162116 55 111 0.0 0.0 0.09 0.77 0.77 97 1012.9
20191020161613 55 109 0.0 3.0 0.10 0.76 0.76 97 1013.0
20191020161113 55 122 0.0 3.0 0.10 0.75 0.75 97 1013.2
20191020160614 55 118 0.0 7.0 0.11 0.75 0.75 97 1013.4
20191020160112 55 117 0.0 7.0 0.11 0.74 0.74 97 1013.5
20191020155614 55 153 0.0 1.0 0.12 0.74 0.74 97 1013.5
20191020155114 55 125 0.0 1.0 0.12 0.73 0.73 98 1013.6
20191020154610 55 105 0.0 1.0 0.13 0.73 0.73 98 1013.6
20191020154114 55 60 0.0 2.0 0.13 0.72 0.72 97 1013.6
20191020153610 54 89 0.0 2.0 0.13 0.71 0.71 97 1013.6
20191020153112 54 136 0.0 3.0 0.12 0.70 0.70 97 1013.6
20191020152609 54 122 0.0 3.0 0.12 0.69 0.69 98 1013.7
20191020152111 54 126 0.0 0.0 0.12 0.68 0.68 97 1013.8
20191020151610 54 152 0.0 0.0 0.11 0.66 0.67 97 1013.9
20191020151107 54 109 0.0 0.0 0.11 0.65 0.65 97 1013.9
20191020150606 53 126 0.0 0.0 0.11 0.64 0.64 97 1013.9
20191020150107 53 91 0.0 0.0 0.11 0.63 0.63 97 1014.0
20191020145607 53 96 0.0 1.0 0.12 0.62 0.62 97 1014.0
20191020145107 53 55 0.0 1.0 0.13 0.61 0.61 97 1014.1
20191020144607 53 114 0.0 0.0 0.13 0.60 0.60 97 1014.1
20191020144106 53 113 0.0 0.0 0.14 0.59 0.59 97 1014.3
20191020143605 53 92 0.0 0.0 0.15 0.58 0.59 97 1014.3
20191020143104 53 147 0.0 0.0 0.16 0.58 0.58 97 1014.4
20191020142605 53 119 0.0 0.0 0.16 0.57 0.57 97 1014.5
20191020142105 53 92 0.0 0.0 0.16 0.56 0.56 97 1014.5
20191020141604 53 94 0.0 0.0 0.16 0.55 0.55 97 1014.6
20191020141104 53 102 0.0 0.0 0.17 0.54 0.54 97 1014.6
20191020140603 52 103 0.0 0.0 0.17 0.53 0.53 97 1014.7
20191020140100 52 75 0.0 0.0 0.18 0.52 0.52 97 1014.8
20191020135602 52 50 0.0 0.0 0.17 0.50 0.51 96 1014.9
20191020135100 52 77 0.0 0.0 0.15 0.48 0.49 96 1015.0
20191020134602 52 77 0.0 0.0 0.14 0.47 0.47 97 1015.0
20191020134101 52 142 0.0 0.0 0.13 0.45 0.45 97 1015.1
20191020133602 52 142 0.0 0.0 0.12 0.43 0.44 97 1015.1
20191020133101 52 142 0.0 0.0 0.11 0.42 0.42 96 1015.1
20191020132602 52 142 0.0 0.0 0.11 0.41 0.41 96 1015.1
20191020132100 52 148 0.0 0.0 0.10 0.40 0.40 96 1015.2
20191020131602 52 148 0.0 0.0 0.10 0.39 0.39 96 1015.1
20191020131101 52 149 0.0 0.0 0.08 0.37 0.37 96 1015.1
20191020130602 52 182 0.0 0.0 0.08 0.36 0.36 96 1015.1
20191020130100 52 196 0.0 0.0 0.06 0.34 0.35 96 1015.1
20191020125601 52 196 0.0 0.0 0.05 0.33 0.33 96 1014.9
20191020125100 52 198 0.0 0.0 0.06 0.33 0.33 96 1014.8
20191020124602 52 198 0.0 0.0 0.06 0.33 0.33 96 1014.8
20191020124101 52 198 0.0 0.0 0.06 0.32 0.32 96 1014.7
20191020123601 52 198 0.0 0.0 0.06 0.31 0.31 96 1014.7
20191020123100 52 198 0.0 0.0 0.07 0.31 0.31 96 1014.6
20191020122601 52 198 0.0 0.0 0.07 0.30 0.31 96 1014.6
20191020122101 52 199 0.0 0.0 0.07 0.30 0.30 96 1014.5
20191020121602 52 200 0.0 0.0 0.06 0.29 0.29 96 1014.4
20191020121100 52 200 0.0 0.0 0.07 0.29 0.29 96 1014.4
20191020120601 52 200 0.0 0.0 0.07 0.28 0.28 96 1014.3
20191020120102 52 200 0.0 0.0 0.08 0.28 0.28 96 1014.3
20191020115600 52 203 0.0 0.0 0.09 0.28 0.28 96 1014.6
20191020115101 52 204 0.0 0.0 0.09 0.27 0.27 95 1014.6
20191020114602 52 204 0.0 0.0 0.10 0.27 0.27 95 1014.6
20191020114101 52 204 0.0 0.0 0.10 0.26 0.26 95 1014.6
20191020113600 52 204 0.0 0.0 0.10 0.25 0.25 95 1014.6
20191020113104 52 204 0.0 0.0 0.09 0.24 0.24 95 1014.7
20191020112602 52 204 0.0 0.0 0.08 0.23 0.24 95 1014.8
20191020112100 52 204 0.0 0.0 0.09 0.23 0.23 95 1014.8
20191020111601 52 204 0.0 0.0 0.10 0.23 0.23 95 1014.8
20191020111100 52 204 0.0 0.0 0.09 0.22 0.22 95 1014.8
20191020110601 52 204 0.0 0.0 0.09 0.21 0.21 95 1014.8
20191020110059 52 204 0.0 0.0 0.08 0.20 0.20 95 1014.9
20191020105600 52 204 0.0 0.0 0.08 0.19 0.19 94 1014.8
20191020105100 52 204 0.0 0.0 0.08 0.18 0.18 95 1014.8
20191020104600 52 204 0.0 0.0 0.08 0.17 0.17 94 1014.8
20191020104101 52 204 0.0 0.0 0.08 0.16 0.16 94 1014.8
20191020103600 52 204 0.0 0.0 0.08 0.15 0.16 94 1014.9
20191020103102 52 204 0.0 0.0 0.09 0.15 0.15 94 1014.9
20191020102600 52 204 0.0 0.0 0.10 0.15 0.15 94 1015.0
20191020102100 52 204 0.0 0.0 0.09 0.14 0.14 94 1015.0
20191020101601 52 204 0.0 0.0 0.08 0.13 0.14 94 1015.0
20191020101058 52 204 0.0 0.0 0.09 0.13 0.13 94 1015.0
20191020100559 52 204 0.0 0.0 0.09 0.12 0.12 94 1015.0
20191020100059 52 204 0.0 0.0 0.09 0.12 0.12 94 1015.1
20191020095558 52 204 0.0 0.0 0.09 0.11 0.11 93 1015.1
20191020095059 52 204 0.0 0.0 0.08 0.10 0.10 93 1015.1
20191020094558 52 204 0.0 0.0 0.08 0.09 0.09 92 1015.0
20191020094058 52 204 0.0 0.0 0.07 0.08 0.09 93 1014.9
20191020093558 52 204 0.0 0.0 0.07 0.07 0.08 93 1014.9
20191020093058 52 204 0.0 0.0 0.06 0.06 0.06 92 1014.8
20191020092559 52 204 0.0 0.0 0.05 0.05 0.05 92 1014.7
20191020092057 53 204 0.0 0.0 0.05 0.05 0.05 92 1014.7
20191020091558 53 204 0.0 0.0 0.05 0.05 0.05 91 1014.7
20191020091058 53 204 0.0 0.0 0.04 0.04 0.04 91 1014.7
20191020090557 53 204 0.0 0.0 0.03 0.03 0.03 91 1014.7
20191020090058 53 204 0.0 0.0 0.03 0.03 0.03 91 1014.7
20191020085556 53 204 0.0 0.0 0.02 0.02 0.02 90 1014.7
20191020085057 53 204 0.0 0.0 0.02 0.02 0.02 90 1014.7
20191020084557 53 204 0.0 0.0 0.01 0.01 0.01 89 1014.7
20191020084055 53 204 0.0 0.0 0.01 0.01 0.01 89 1014.5
20191020083555 54 204 0.0 0.0 0.00 0.00 0.00 88 1014.5
20191020083055 54 204 0.0 0.0 0.00 0.00 0.00 88 1014.5
20191020082553 54 204 0.0 0.0 0.00 0.00 0.00 87 1014.5
20191020082055 54 204 0.0 0.0 0.00 0.00 0.00 88 1014.4
20191020081556 54 194 0.0 0.0 0.00 0.00 0.00 88 1014.4
20191020081055 54 194 0.0 0.0 0.00 0.00 0.00 88 1014.4
20191020080555 54 194 0.0 0.0 0.00 0.00 0.00 87 1014.5
20191020080053 54 194 0.0 0.0 0.00 0.00 0.00 86 1014.4
20191020075552 54 194 0.0 0.0 0.00 0.00 0.00 86 1014.4
20191020075043 54 194 0.0 0.0 0.00 0.00 0.00 86 1014.5
20191020074543 54 194 0.0 0.0 0.00 0.00 0.00 86 1014.5
20191020074041 54 194 0.0 0.0 0.00 0.00 0.00 86 1014.6
20191020073540 54 194 0.0 0.0 0.00 0.00 0.00 86 1014.6
20191020073040 54 194 0.0 0.0 0.00 0.00 0.00 86 1014.7
20191020072539 54 194 0.0 0.0 0.00 0.00 0.00 86 1014.7
20191020072041 54 194 0.0 0.0 0.00 0.00 0.00 86 1014.7
20191020071538 54 194 0.0 0.0 0.00 0.00 0.00 86 1014.7
20191020071039 54 194 0.0 0.0 0.00 0.00 0.00 86 1014.8
20191020070539 54 194 0.0 0.0 0.00 0.00 0.00 86 1014.8
20191020070038 54 194 0.0 0.0 0.00 0.00 0.00 86 1014.7
20191020065538 54 194 0.0 0.0 0.00 0.00 0.00 86 1014.8
20191020065037 54 191 0.0 0.0 0.00 0.00 0.00 86 1014.9
20191020064538 54 191 0.0 0.0 0.00 0.00 0.00 86 1015.0
20191020064037 53 191 0.0 0.0 0.00 0.00 0.00 86 1014.9
20191020063537 53 196 0.0 0.0 0.00 0.00 0.00 87 1014.9
20191020063036 53 196 0.0 0.0 0.00 0.00 0.00 87 1014.9
20191020062535 53 196 0.0 0.0 0.00 0.00 0.00 88 1015.0
20191020062032 53 196 0.0 0.0 0.00 0.00 0.00 88 1015.2
20191020061531 53 196 0.0 0.0 0.00 0.00 0.00 88 1015.2
20191020061032 53 196 0.0 0.0 0.00 0.00 0.00 89 1015.2
20191020060532 53 196 0.0 0.0 0.00 0.00 0.00 89 1015.4
20191020060032 53 196 0.0 0.0 0.00 0.00 0.00 89 1015.4
20191020055533 53 196 0.0 0.0 0.00 0.00 0.00 90 1015.4
20191020055033 52 196 0.0 0.0 0.00 0.00 0.00 90 1015.6
20191020054531 52 196 0.0 0.0 0.00 0.00 0.00 90 1015.6
20191020054032 52 196 0.0 0.0 0.00 0.00 0.00 90 1015.6
20191020053531 52 196 0.0 0.0 0.00 0.00 0.00 90 1015.7
20191020053033 52 196 0.0 0.0 0.00 0.00 0.00 91 1015.8
20191020052532 52 196 0.0 0.0 0.00 0.00 0.00 91 1015.8
20191020052033 52 196 0.0 0.0 0.00 0.00 0.00 91 1015.7
20191020051532 52 196 0.0 0.0 0.00 0.00 0.00 91 1015.7
20191020051033 52 196 0.0 0.0 0.00 0.00 0.00 91 1015.7
20191020050531 52 196 0.0 0.0 0.00 0.00 0.00 91 1015.7
20191020050032 51 196 0.0 0.0 0.00 0.00 0.00 91 1015.7
20191020045531 51 196 0.0 0.0 0.00 0.00 0.00 92 1015.8
20191020045032 51 194 0.0 0.0 0.00 0.00 0.00 92 1015.8
20191020044531 51 194 0.0 0.0 0.00 0.00 0.00 92 1015.9
20191020044032 51 194 0.0 0.0 0.00 0.00 0.00 92 1015.9
20191020043531 51 194 0.0 0.0 0.00 0.00 0.00 91 1016.0
20191020043033 51 194 0.0 0.0 0.00 0.00 0.00 91 1016.0
20191020042534 51 194 0.0 0.0 0.00 0.00 0.00 91 1016.1
20191020042034 50 194 0.0 0.0 0.00 0.00 0.00 91 1016.2
20191020041532 50 194 0.0 0.0 0.00 0.00 0.00 91 1016.3
20191020041033 50 194 0.0 0.0 0.00 0.00 0.00 91 1016.3
20191020040533 50 194 0.0 0.0 0.00 0.00 0.00 91 1016.3
20191020040033 50 194 0.0 0.0 0.00 0.00 0.00 91 1016.2
20191020035534 50 194 0.0 0.0 0.00 0.00 0.00 91 1016.2
20191020035033 50 194 0.0 0.0 0.00 0.00 0.00 91 1016.3
20191020034532 50 194 0.0 0.0 0.00 0.00 0.00 91 1016.2
20191020034032 50 194 0.0 0.0 0.00 0.00 0.00 90 1016.2
20191020033532 50 194 0.0 0.0 0.00 0.00 0.00 89 1016.3
20191020033033 50 194 0.0 0.0 0.00 0.00 0.00 89 1016.3
20191020032533 50 194 0.0 0.0 0.00 0.00 0.00 89 1016.3
20191020032031 50 194 0.0 0.0 0.00 0.00 0.00 88 1016.4
20191020031531 50 194 0.0 0.0 0.00 0.00 0.00 88 1016.4
20191020031031 50 194 0.0 0.0 0.00 0.00 0.00 87 1016.4
20191020030530 50 194 0.0 0.0 0.00 0.00 0.00 88 1016.5
20191020030029 50 194 0.0 0.0 0.00 0.00 0.00 88 1016.5
20191020025530 50 194 0.0 0.0 0.00 0.00 0.00 87 1016.4
20191020025031 50 194 0.0 0.0 0.00 0.00 0.00 87 1016.4
20191020024531 50 194 0.0 0.0 0.00 0.00 0.00 87 1016.5
20191020024029 50 194 0.0 0.0 0.00 0.00 0.00 86 1016.4
20191020023530 50 194 0.0 0.0 0.00 0.00 0.00 86 1016.3
20191020023030 50 194 0.0 0.0 0.00 0.00 0.00 85 1016.2
20191020022530 51 194 0.0 0.0 0.00 0.00 0.00 86 1016.2
20191020022029 51 194 0.0 0.0 0.00 0.00 0.00 85 1016.2
20191020021529 51 194 0.0 0.0 0.00 0.00 0.00 85 1016.1
20191020021028 51 194 0.0 0.0 0.00 0.00 0.00 85 1016.1
20191020020528 51 194 0.0 0.0 0.00 0.00 0.00 85 1016.2
20191020020029 51 194 0.0 0.0 0.00 0.00 0.00 84 1016.4
20191020015529 51 194 0.0 0.0 0.00 0.00 0.00 84 1016.3
20191020015029 51 194 0.0 0.0 0.00 0.00 0.00 84 1016.1
20191020014527 51 194 0.0 0.0 0.00 0.00 0.00 83 1016.2
20191020014028 51 194 0.0 0.0 0.00 0.00 0.00 82 1016.1
20191020013527 52 194 0.0 0.0 0.00 0.00 0.00 82 1016.2
20191020013025 52 194 0.0 0.0 0.00 0.00 0.00 81 1016.2
20191020012527 52 194 0.0 0.0 0.00 0.00 0.00 80 1016.1
20191020012027 52 194 0.0 0.0 0.00 0.00 0.00 80 1016.1
20191020011525 53 194 0.0 0.0 0.00 0.00 0.00 80 1016.1
20191020011025 53 194 0.0 0.0 0.00 0.00 0.00 80 1016.2
20191020010524 53 194 0.0 0.0 0.00 0.00 0.00 80 1016.1
20191020010025 53 194 0.0 0.0 0.00 0.00 0.00 80 1016.1
20191020005523 53 194 0.0 0.0 0.00 0.00 0.00 79 1016.2
20191020005022 53 194 0.0 0.0 0.00 0.00 0.00 79 1016.3
20191020004523 53 194 0.0 0.0 0.00 0.00 0.00 78 1016.4
20191020004024 53 194 0.0 0.0 0.00 0.00 0.00 78 1016.4
20191020003523 53 194 0.0 0.0 0.00 0.00 0.00 78 1016.4
20191020003021 54 194 0.0 0.0 0.00 0.00 0.00 77 1016.4
20191020002523 54 194 0.0 0.0 0.00 0.00 0.00 76 1016.5
20191020002021 54 194 0.0 0.0 0.00 0.00 0.00 76 1016.5
20191020001521 54 194 0.0 0.0 0.00 0.00 0.00 75 1016.5
20191020001022 54 194 0.0 0.0 0.00 0.00 0.00 75 1016.6
20191020000521 55 194 0.0 0.0 0.00 0.00 0.00 74 1016.6
20191020000021 55 194 0.0 0.0 0.00 0.00 0.00 73 1016.6
20191019235521 55 194 0.0 0.0 0.00 0.00 0.00 73 1016.7
20191019235020 56 194 0.0 0.0 0.00 0.00 0.00 73 1016.8
20191019234519 56 194 0.0 0.0 0.00 0.00 0.00 71 1016.6
20191019234017 56 194 0.0 0.0 0.00 0.00 0.00 70 1016.7
20191019233517 56 194 0.0 0.0 0.00 0.00 0.00 70 1016.7
20191019233018 57 194 0.0 0.0 0.00 0.00 0.00 69 1016.5
20191019232519 57 194 0.0 0.0 0.00 0.00 0.00 69 1016.6
20191019232017 57 194 0.0 0.0 0.00 0.00 0.00 68 1016.5
20191019231519 57 194 0.0 0.0 0.00 0.00 0.00 67 1016.5
20191019231018 57 194 0.0 0.0 0.00 0.00 0.00 67 1016.5
20191019230518 58 194 0.0 0.0 0.00 0.00 0.00 66 1016.5
20191019230017 58 183 0.0 0.0 0.00 0.00 0.00 66 1016.5
20191019225518 58 191 0.0 0.0 0.00 0.00 0.00 65 1016.5
20191019225017 58 190 0.0 0.0 0.00 0.00 0.00 65 1016.4
20191019224518 58 190 0.0 0.0 0.00 0.00 0.00 64 1016.4
20191019224018 58 188 0.0 0.0 0.00 0.00 0.00 63 1016.4
20191019223519 58 190 0.0 0.0 0.00 0.00 0.00 63 1016.4
20191019223017 58 190 0.0 0.0 0.00 0.00 0.00 63 1016.3
20191019222519 59 190 0.0 0.0 0.00 0.00 0.00 63 1016.3
20191019222019 59 190 0.0 0.0 0.00 0.00 0.00 62 1016.4
20191019221518 59 190 0.0 0.0 0.00 0.00 0.00 60 1016.4
20191019221017 60 189 0.0 0.0 0.00 0.00 0.00 60 1016.4
20191019220519 60 190 0.0 0.0 0.00 0.00 0.00 60 1016.4
20191019220017 60 169 0.0 0.0 0.00 0.00 0.00 59 1016.4
20191019215517 60 169 0.0 0.0 0.00 0.00 0.00 58 1016.4
20191019215018 60 169 0.0 0.0 0.00 0.00 0.00 58 1016.5
20191019214517 60 163 0.0 0.0 0.00 0.00 0.00 57 1016.6
20191019214017 61 193 0.0 0.0 0.00 0.00 0.00 57 1016.5
20191019213517 61 163 0.0 0.0 0.00 0.00 0.00 57 1016.6
20191019213015 61 209 0.0 0.0 0.00 0.00 0.00 58 1016.6
20191019212515 61 224 0.0 0.0 0.00 0.00 0.00 57 1016.7
20191019212016 61 192 0.0 0.0 0.00 0.00 0.00 55 1016.8
20191019211515 61 217 0.0 0.0 0.00 0.00 0.00 56 1016.9
20191019211014 61 217 0.0 0.0 0.00 0.00 0.00 55 1016.9
20191019210513 62 193 0.0 0.0 0.00 0.00 0.00 56 1016.9
20191019210015 62 198 0.0 0.0 0.00 0.00 0.00 55 1016.9
20191019205513 62 198 0.0 0.0 0.00 0.00 0.00 56 1016.9
20191019205015 62 196 0.0 0.0 0.00 0.00 0.00 56 1016.8
20191019204514 62 196 0.0 0.0 0.00 0.00 0.00 55 1016.9
20191019204014 62 200 0.0 0.0 0.00 0.00 0.00 54 1016.9
20191019203513 62 161 0.0 0.0 0.00 0.00 0.00 54 1017.0
20191019203011 62 196 0.0 0.0 0.00 0.00 0.00 54 1017.0
20191019202507 62 215 0.0 0.0 0.00 0.00 0.00 53 1017.1
20191019202009 62 244 0.0 0.0 0.00 0.00 0.00 52 1017.1
20191019201507 63 218 0.0 1.0 0.00 0.00 0.00 52 1017.1
20191019201008 63 219 0.0 1.0 0.00 0.00 0.00 53 1017.2
20191019200507 63 210 0.0 1.0 0.00 0.00 0.00 52 1017.2
20191019200007 63 240 0.0 1.0 0.00 0.00 0.00 50 1017.2
20191019195507 63 241 0.0 0.0 0.00 0.00 0.00 50 1017.2
20191019195008 63 231 0.0 0.0 0.00 0.00 0.00 50 1017.3
20191019194505 64 232 0.0 1.0 0.00 0.00 0.00 49 1017.4
20191019194005 64 258 0.0 1.0 0.00 0.00 0.00 49 1017.5
20191019193505 64 141 0.0 1.0 0.00 0.00 0.00 50 1017.4
20191019193005 64 186 0.0 1.0 0.00 0.00 0.00 49 1017.5
20191019192505 64 187 0.0 0.0 0.00 0.00 0.00 48 1017.4
20191019192005 64 213 0.0 0.0 0.00 0.00 0.00 48 1017.5
20191019191506 64 223 0.0 0.0 0.00 0.00 0.00 49 1017.5
20191019191005 64 198 0.0 0.0 0.00 0.00 0.00 48 1017.5
20191019190505 64 217 0.0 0.0 0.00 0.00 0.00 49 1017.5
20191019190005 64 216 0.0 0.0 0.00 0.00 0.00 48 1017.6
20191019185505 64 231 0.0 0.0 0.00 0.00 0.00 51 1017.8